Flight Track Log - Related Links

Times and Time Zones

All times are in EDT time to prevent confusion due to time zone crossing. See the C6-ZBB flight status page for this flight to view local times or setup timezone preferences in your user account.

Time Position Orientation Groundspeed Altitude Reporting Facility
EDT Latitude Longitude Course Direction KTS MPH feet Rate Location/Type
Sat 12:52:30 PM 55.3667 -131.9000 135° Southeast 170 196 5,900  Level Vancouver Center
Sat 12:53:30 PM 55.3167 -131.8667 159° South 190 219 7,400 1,400 Climbing Vancouver Center
Sat 12:54:30 PM 55.2667 -131.8333 159° South 190 219 8,700 1,400 Climbing Vancouver Center
Sat 12:55:30 PM 55.2333 -131.7667 131° Southeast 200 230 10,200 1,300 Climbing Vancouver Center
Sat 12:56:30 PM 55.1833 -131.7167 150° Southeast 210 242 11,300 1,261 Climbing Vancouver Center
Sat 12:57:00 PM 54.9555 -131.4308 135° Southeast  Level FlightAware Approximate
Sat 12:57:29 PM 55.1167 -131.6833 164° South 210 242 12,700  Level Vancouver Center
Sat 12:58:29 PM 55.0667 -131.6500 159° South 220 253 13,900 1,200 Climbing Vancouver Center
Sat 12:59:29 PM 55.0000 -131.6500 180° South 220 253 15,100 1,200 Climbing Vancouver Center
Sat 01:00:29 PM 54.9500 -131.6833 201° Southwest 220 253 16,300 900 Climbing Vancouver Center
Sat 01:01:29 PM 54.8833 -131.7000 188° South 230 265 16,900 350 Climbing Vancouver Center
Sat 01:02:29 PM 54.8167 -131.7167 188° South 250 288 17,000 50 Climbing Vancouver Center
Sat 01:03:29 PM 54.7500 -131.7333 188° South 270 311 17,000 150 Level Vancouver Center
Sat 01:04:29 PM 54.6667 -131.6500 150° Southeast 280 322 17,300 650 Climbing Vancouver Center
Sat 01:05:29 PM 54.6167 -131.5500 131° Southeast 260 299 18,300 850 Climbing Vancouver Center
Sat 01:06:29 PM 54.5833 -131.4667 125° Southeast 250 288 19,000 600 Climbing Vancouver Center
Sat 01:07:29 PM 54.5333 -131.4000 142° Southeast 250 288 19,500 600 Climbing Vancouver Center
Sat 01:08:29 PM 54.4667 -131.3000 139° Southeast 260 299 20,200 595 Climbing Vancouver Center
Sat 01:09:30 PM 54.4167 -131.2333 142° Southeast 250 288 20,700 500 Climbing Vancouver Center
Sat 01:10:29 PM 54.3667 -131.1333 131° Southeast 260 299 21,200 504 Climbing Vancouver Center
Sat 01:11:29 PM 54.3167 -131.0333 131° Southeast 260 299 21,700 595 Climbing Vancouver Center
Sat 01:12:30 PM 54.2667 -130.9833 150° Southeast 260 299 22,400 545 Climbing Vancouver Center
Sat 01:13:30 PM 54.2167 -130.8833 131° Southeast 260 299 22,800 454 Climbing Vancouver Center
Sat 01:14:29 PM 54.1667 -130.7833 130° Southeast 260 299 23,300 500 Climbing Vancouver Center
Sat 01:15:30 PM 54.1000 -130.7167 150° Southeast 260 299 23,800 446 Climbing Vancouver Center
Sat 01:16:30 PM 54.0500 -130.6333 136° Southeast 270 311 24,200 400 Climbing Vancouver Center
Sat 01:17:30 PM 54.0000 -130.5333 130° Southeast 270 311 24,600 300 Climbing Vancouver Center
Sat 01:18:30 PM 53.9333 -130.4667 150° Southeast 270 311 24,800 200 Climbing Vancouver Center
Sat 01:19:30 PM 53.8833 -130.3667 130° Southeast 270 311 25,000 100 Climbing Vancouver Center
Sat 01:20:30 PM 53.8333 -130.2833 135° Southeast 280 322 25,000  Level Vancouver Center
Sat 01:21:30 PM 53.7667 -130.1833 138° Southeast 290 334 25,000  Level Vancouver Center
Sat 01:22:30 PM 53.7000 -130.0833 138° Southeast 290 334 25,000  Level Vancouver Center
Sat 01:23:30 PM 53.6333 -130.0167 149° Southeast 290 334 25,000  Level Vancouver Center
Sat 01:24:30 PM 53.5833 -129.9333 135° Southeast 290 334 25,000  Level Vancouver Center
Sat 01:25:30 PM 53.5167 -129.8333 138° Southeast 290 334 25,000  Level Vancouver Center
Sat 01:26:30 PM 53.4500 -129.7500 143° Southeast 290 334 25,000  Level Vancouver Center
Sat 01:27:30 PM 53.4000 -129.6500 130° Southeast 290 334 25,000  Level Vancouver Center
Sat 01:28:30 PM 53.3500 -129.5667 135° Southeast 290 334 25,000  Level Vancouver Center
Sat 01:29:30 PM 53.2833 -129.4667 138° Southeast 290 334 25,000  Level Vancouver Center
Sat 01:30:30 PM 53.2167 -129.3833 143° Southeast 290 334 25,000  Level Vancouver Center
Sat 01:31:30 PM 53.1500 -129.2833 138° Southeast 280 322 25,000  Level Vancouver Center
Sat 01:32:30 PM 53.1000 -129.2167 141° Southeast 280 322 25,000  Level Vancouver Center
Sat 01:33:30 PM 53.0500 -129.1333 135° Southeast 280 322 25,000  Level Vancouver Center
Sat 01:34:30 PM 53.0000 -129.0500 135° Southeast 270 311 25,000  Level Vancouver Center
Sat 01:35:30 PM 52.9333 -128.9500 138° Southeast 270 311 25,000  Level Vancouver Center
Sat 01:36:30 PM 52.8667 -128.8667 143° Southeast 270 311 25,000  Level Vancouver Center
Sat 01:37:30 PM 52.8167 -128.8000 141° Southeast 280 322 25,000  Level Vancouver Center
Sat 01:38:30 PM 52.7667 -128.7167 135° Southeast 280 322 25,000  Level Vancouver Center
Sat 01:39:30 PM 52.7000 -128.6167 138° Southeast 270 311 25,000  Level Vancouver Center
Sat 01:40:30 PM 52.6500 -128.5333 135° Southeast 280 322 25,000  Level Vancouver Center
Sat 01:41:30 PM 52.5833 -128.4667 149° Southeast 280 322 25,000  Level Vancouver Center
Sat 01:42:30 PM 52.5167 -128.3833 143° Southeast 270 311 25,000  Level Vancouver Center
Sat 01:43:30 PM 52.4833 -128.3000 123° Southeast 280 322 25,000  Level Vancouver Center
Sat 01:44:30 PM 52.4167 -128.2000 138° Southeast 280 322 25,000  Level Vancouver Center
Sat 01:45:30 PM 52.3500 -128.1167 143° Southeast 280 322 25,000  Level Vancouver Center
Sat 01:46:30 PM 52.2833 -128.0500 149° Southeast 280 322 25,000  Level Vancouver Center
Sat 01:47:30 PM 52.2333 -127.9667 134° Southeast 280 322 25,000  Level Vancouver Center
Sat 01:48:30 PM 52.1667 -127.8833 143° Southeast 280 322 25,000  Level Vancouver Center
Sat 01:49:30 PM 52.1333 -127.8000 123° Southeast 280 322 25,000  Level Vancouver Center
Sat 01:50:30 PM 52.0667 -127.7167 142° Southeast 270 311 25,000  Level Vancouver Center
Sat 01:51:30 PM 52.0000 -127.6167 137° Southeast 270 311 25,000  Level Vancouver Center
Sat 01:52:30 PM 51.9500 -127.5667 148° Southeast 270 311 25,000  Level Vancouver Center
Sat 01:53:30 PM 51.8833 -127.4833 142° Southeast 270 311 25,000  Level Vancouver Center
Sat 01:54:30 PM 51.8333 -127.4000 134° Southeast 270 311 25,000  Level Vancouver Center
Sat 01:55:30 PM 51.7667 -127.3000 137° Southeast 270 311 25,000  Level Vancouver Center
Sat 01:56:30 PM 51.7333 -127.2167 123° Southeast 270 311 25,000  Level Vancouver Center
Sat 01:57:30 PM 51.6667 -127.1333 142° Southeast 270 311 25,000  Level Vancouver Center
Sat 01:58:30 PM 51.6000 -127.0833 155° Southeast 270 311 25,000  Level Vancouver Center
Sat 01:59:30 PM 51.5500 -127.0000 134° Southeast 270 311 25,000  Level Vancouver Center
Sat 02:00:30 PM 51.4833 -126.9167 142° Southeast 270 311 25,000  Level Vancouver Center
Sat 02:01:30 PM 51.4333 -126.8333 134° Southeast 270 311 25,000  Level Vancouver Center
Sat 02:02:30 PM 51.3667 -126.7667 148° Southeast 270 311 25,000  Level Vancouver Center
Sat 02:03:30 PM 51.3000 -126.6833 142° Southeast 270 311 25,000  Level Vancouver Center
Sat 02:04:30 PM 51.2667 -126.6000 123° Southeast 270 311 25,000  Level Vancouver Center
Sat 02:05:30 PM 51.2000 -126.5167 142° Southeast 270 311 25,000  Level Vancouver Center
Sat 02:06:30 PM 51.1500 -126.4333 134° Southeast 270 311 25,000  Level Vancouver Center
Sat 02:07:30 PM 51.0833 -126.3833 155° Southeast 270 311 25,000  Level Vancouver Center
Sat 02:08:30 PM 51.0333 -126.3000 134° Southeast 270 311 25,000  Level Vancouver Center
Sat 02:09:30 PM 50.9667 -126.2167 142° Southeast 270 311 25,000  Level Vancouver Center
Sat 02:10:30 PM 50.9167 -126.1500 140° Southeast 270 311 25,000  Level Vancouver Center
Sat 02:11:30 PM 50.8500 -126.0667 142° Southeast 270 311 25,000  Level Vancouver Center
Sat 02:12:30 PM 50.8000 -125.9833 133° Southeast 270 311 25,000  Level Vancouver Center
Sat 02:13:30 PM 50.7333 -125.9167 148° Southeast 270 311 25,000  Level Vancouver Center
Sat 02:14:30 PM 50.6667 -125.8500 148° Southeast 270 311 25,000  Level Vancouver Center
Sat 02:15:30 PM 50.6167 -125.7667 133° Southeast 270 311 25,000  Level Vancouver Center
Sat 02:16:30 PM 50.5667 -125.6833 133° Southeast 270 311 25,000  Level Vancouver Center
Sat 02:17:30 PM 50.5167 -125.6333 148° Southeast 270 311 25,000  Level Vancouver Center
Sat 02:18:30 PM 50.4500 -125.5500 141° Southeast 270 311 25,000  Level Vancouver Center
Sat 02:19:30 PM 50.4000 -125.4667 133° Southeast 270 311 25,000  Level Vancouver Center
Sat 02:20:30 PM 50.3333 -125.4000 147° Southeast 270 311 25,000  Level Vancouver Center
Sat 02:21:30 PM 50.2833 -125.3333 140° Southeast 270 311 25,000  Level Vancouver Center
Sat 02:23:30 PM 50.1500 -125.1833 144° Southeast 270 311 25,000  Level Vancouver Center
Sat 02:24:30 PM 50.1000 -125.1000 133° Southeast 280 322 25,000  Level Vancouver Center
Sat 02:25:30 PM 50.0333 -125.0500 154° Southeast 270 311 25,000  Level Vancouver Center
Sat 02:26:30 PM 49.9667 -124.9667 141° Southeast 270 311 25,000  Level Vancouver Center
Sat 02:27:30 PM 49.9167 -124.8833 133° Southeast 270 311 25,000  Level Vancouver Center
Sat 02:28:30 PM 49.8500 -124.8333 154° Southeast 270 311 25,000  Level Vancouver Center
Sat 02:29:30 PM 49.7833 -124.7500 141° Southeast 270 311 25,000 -50 Level Vancouver Center
Sat 02:30:30 PM 49.7333 -124.7000 147° Southeast 270 311 24,900 -600 Descending Vancouver Center
Sat 02:31:30 PM 49.6667 -124.6167 141° Southeast 290 334 23,800 -900 Descending Vancouver Center
Sat 02:32:30 PM 49.6000 -124.5500 147° Southeast 300 345 23,100 -800 Descending Vancouver Center
Sat 02:33:30 PM 49.5167 -124.4667 147° Southeast 300 345 22,200 -900 Descending Vancouver Center
Sat 02:35:30 PM 49.3833 -124.2833 138° Southeast 310 357 20,400 -867 Descending Vancouver Center
Sat 02:36:30 PM 49.3333 -124.2167 139° Southeast 310 357 19,600 -800 Descending Vancouver Center
Sat 02:37:30 PM 49.2667 -124.1333 141° Southeast 310 357 18,800 -850 Descending Vancouver Center
Sat 02:38:30 PM 49.1833 -124.0333 142° Southeast 310 357 17,900 -900 Descending Vancouver Center
Sat 02:39:30 PM 49.1333 -123.9500 133° Southeast 310 357 17,000 -1,050 Descending Vancouver Center
Sat 02:40:30 PM 49.0500 -123.8833 152° Southeast 310 357 15,800 -1,450 Descending Vancouver Center
Sat 02:41:30 PM 48.9833 -123.8000 141° Southeast 320 368 14,100 -1,750 Descending Vancouver Center
Sat 02:42:30 PM 48.9167 -123.7000 135° Southeast 320 368 12,300 -1,800 Descending Vancouver Center
Sat 02:43:30 PM 48.8500 -123.6167 141° Southeast 320 368 10,500 -1,950 Descending Vancouver Center
Sat 02:44:30 PM 48.7667 -123.5500 152° Southeast 310 357 8,400 -1,650 Descending Vancouver Center
Sat 02:45:30 PM 48.7167 -123.4667 132° Southeast 280 322 7,200 -1,250 Descending Vancouver Center
Sat 02:46:30 PM 48.7167 -123.3667 90° East 250 288 5,900 -1,050 Descending Vancouver Center
Sat 02:47:30 PM 48.7167 -123.2667 90° East 250 288 5,100 -750 Descending Vancouver Center
Sat 02:48:30 PM 48.7500 -123.1667 63° Northeast 240 276 4,400 -950 Descending Vancouver Center
Sat 02:49:30 PM 48.7667 -123.0667 76° East 250 288 3,200 -650 Descending Vancouver Center
Sat 02:50:30 PM 48.7833 -122.9833 73° East 250 288 3,100 -50 Descending Vancouver Center
Sat 02:51:30 PM 48.8167 -122.8833 63° Northeast 240 276 3,100 -300 Level Vancouver Center
Sat 02:52:30 PM 48.8500 -122.8167 53° Northeast 240 276 2,500 -500 Descending Vancouver Center
Sat 02:53:30 PM 48.8833 -122.7333 59° Northeast 230 265 2,100 -200 Descending Vancouver Center
Sat 02:54:30 PM 48.9333 -122.6500 48° Northeast 220 253 2,100  Level Vancouver Center
Sat 02:55:30 PM 48.9333 -122.5500 90° East 220 253 2,100 -50 Level Vancouver Center
Sat 02:56:30 PM 48.9167 -122.5000 117° Southeast 180 207 2,000  Descending Vancouver Center
Sat 02:57:30 PM 48.8833 -122.5333 213° Southwest 160 184 2,100 -400 Climbing Vancouver Center
Sat 02:58:30 PM 48.8333 -122.5333 180° South 160 184 1,200 -800 Descending Vancouver Center
Sat 02:59:30 PM 48.8000 -122.5333 180° South 140 161 500 -700 Descending Vancouver Center

Login

Don't have an account? Register now (free) for customized features, flight alerts, and more!